createdAt,value
2022-12-18T00:02:36.423Z,102395.50
2022-12-18T00:05:52.427Z,102398.53
2022-12-18T00:08:59.104Z,102396.47
2022-12-18T00:15:22.359Z,102384.78
2022-12-18T00:18:28.075Z,102381.84
2022-12-18T00:21:34.266Z,102388.88
2022-12-18T00:24:39.789Z,102391.97
2022-12-18T00:27:45.212Z,102393.78
2022-12-18T00:30:52.683Z,102396.72
2022-12-18T00:33:58.968Z,102395.72
2022-12-18T00:37:04.531Z,102396.50
2022-12-18T00:40:10.897Z,102402.25
2022-12-18T00:43:16.697Z,102412.66
2022-12-18T00:46:22.085Z,102411.97
2022-12-18T00:49:27.908Z,102402.16
2022-12-18T00:52:34.043Z,102405.41
2022-12-18T00:55:41.095Z,102411.91
2022-12-18T00:58:46.571Z,102420.56
2022-12-18T01:01:52.337Z,102413.47
2022-12-18T01:04:59.784Z,102423.63
2022-12-18T01:08:05.393Z,102427.16
2022-12-18T01:11:21.893Z,102422.97
2022-12-18T01:14:27.381Z,102436.25
2022-12-18T01:17:32.597Z,102445.56
2022-12-18T01:20:40.354Z,102436.72
2022-12-18T01:23:45.953Z,102451.00
2022-12-18T01:26:51.470Z,102455.25
2022-12-18T01:29:56.991Z,102459.97
2022-12-18T01:33:02.680Z,102471.75
2022-12-18T01:36:08.798Z,102478.34
2022-12-18T01:39:16.258Z,102476.91
2022-12-18T01:42:23.126Z,102475.75
2022-12-18T01:45:30.775Z,102483.22
2022-12-18T01:48:36.707Z,102486.78
2022-12-18T01:51:43.267Z,102492.97
2022-12-18T01:54:51.941Z,102490.78
2022-12-18T01:58:02.028Z,102499.19
2022-12-18T02:01:07.809Z,102498.28
2022-12-18T02:04:28.425Z,102496.91
2022-12-18T02:07:49.771Z,102499.94
2022-12-18T02:11:11.910Z,102506.34
2022-12-18T02:14:59.126Z,102517.03
2022-12-18T02:18:12.540Z,102517.97
2022-12-18T02:21:20.968Z,102526.06
2022-12-18T02:24:35.424Z,102522.72
2022-12-18T02:27:46.554Z,102525.38
2022-12-18T02:30:54.736Z,102533.31
2022-12-18T02:34:04.085Z,102532.50
2022-12-18T02:37:17.776Z,102533.47
2022-12-18T02:40:28.119Z,102537.25
2022-12-18T02:43:33.897Z,102549.78
2022-12-18T02:46:47.667Z,102551.91
2022-12-18T02:50:28.226Z,102571.84
2022-12-18T02:53:50.494Z,102570.06
2022-12-18T02:57:02.795Z,102570.44
2022-12-18T03:00:15.826Z,102561.53
2022-12-18T03:03:41.854Z,102564.47
2022-12-18T03:06:55.060Z,102565.50
2022-12-18T03:10:02.674Z,102566.75
2022-12-18T03:13:16.834Z,102561.03
2022-12-18T03:16:30.706Z,102566.09
2022-12-18T03:19:37.172Z,102563.13
2022-12-18T03:22:47.708Z,102568.09
2022-12-18T03:26:03.052Z,102562.75
2022-12-18T03:29:42.075Z,102555.56
2022-12-18T03:33:10.352Z,102558.25
2022-12-18T03:36:20.157Z,102551.50
2022-12-18T03:39:27.026Z,102560.84
2022-12-18T03:42:38.646Z,102556.19
2022-12-18T03:45:55.607Z,102555.81
2022-12-18T03:49:03.726Z,102565.72
2022-12-18T03:52:18.437Z,102574.72
2022-12-18T03:55:27.607Z,102574.28
2022-12-18T03:58:41.478Z,102583.56
2022-12-18T04:02:01.011Z,102586.91
2022-12-18T04:05:10.479Z,102586.22
2022-12-18T04:08:19.207Z,102594.97
2022-12-18T04:11:32.494Z,102602.38
2022-12-18T04:14:40.971Z,102608.13
2022-12-18T04:17:50.779Z,102614.03
2022-12-18T04:20:59.955Z,102611.38
2022-12-18T04:24:06.231Z,102611.75
2022-12-18T04:27:14.141Z,102614.75
2022-12-18T04:30:24.168Z,102623.06
2022-12-18T04:33:29.993Z,102618.63
2022-12-18T04:36:35.683Z,102621.47
2022-12-18T04:39:41.234Z,102635.22
2022-12-18T04:42:53.647Z,102636.94
2022-12-18T04:46:07.333Z,102643.84
2022-12-18T04:49:12.736Z,102647.97
2022-12-18T04:52:18.264Z,102640.88
2022-12-18T04:55:27.142Z,102646.78
2022-12-18T04:58:32.463Z,102663.63
2022-12-18T05:01:37.997Z,102670.72
2022-12-18T05:04:43.756Z,102672.59
2022-12-18T05:07:49.176Z,102678.53
2022-12-18T05:11:10.143Z,102690.25
2022-12-18T05:14:16.605Z,102678.41
2022-12-18T05:17:21.921Z,102696.69
2022-12-18T05:20:28.378Z,102687.91
2022-12-18T05:23:37.674Z,102697.81
2022-12-18T05:26:43.394Z,102701.13
2022-12-18T05:29:48.813Z,102702.78
2022-12-18T05:32:54.627Z,102709.22
2022-12-18T05:36:03.384Z,102705.59
2022-12-18T05:39:09.185Z,102706.88
2022-12-18T05:42:14.729Z,102711.38
2022-12-18T05:45:21.732Z,102722.03
2022-12-18T05:48:27.399Z,102729.81
2022-12-18T05:51:33.197Z,102734.81
2022-12-18T05:54:38.876Z,102726.50
2022-12-18T05:57:44.536Z,102729.25
2022-12-18T06:00:49.784Z,102737.63
2022-12-18T06:03:56.487Z,102740.13
2022-12-18T06:07:04.774Z,102744.84
2022-12-18T06:10:10.590Z,102754.72
2022-12-18T06:13:16.529Z,102756.53
2022-12-18T06:16:22.205Z,102770.44
2022-12-18T06:19:28.065Z,102761.25
2022-12-18T06:22:33.786Z,102759.44
2022-12-18T06:25:40.704Z,102773.38
2022-12-18T06:28:46.332Z,102776.28
2022-12-18T06:31:51.857Z,102774.13
2022-12-18T06:34:57.414Z,102790.63
2022-12-18T06:38:03.782Z,102796.22
2022-12-18T06:41:10.540Z,102796.22
2022-12-18T06:44:16.153Z,102802.63
2022-12-18T06:47:21.882Z,102805.56
2022-12-18T06:50:28.027Z,102808.19
2022-12-18T06:53:34.159Z,102805.28
2022-12-18T06:56:39.962Z,102809.00
2022-12-18T06:59:45.926Z,102810.53
2022-12-18T07:02:51.615Z,102818.47
2022-12-18T07:05:57.472Z,102819.16
2022-12-18T07:09:02.851Z,102827.22
2022-12-18T07:12:09.395Z,102834.06
2022-12-18T07:15:15.248Z,102841.69
2022-12-18T07:18:20.608Z,102847.13
2022-12-18T07:21:26.663Z,102846.69
2022-12-18T07:24:34.984Z,102852.13
2022-12-18T07:27:41.301Z,102856.56
2022-12-18T07:30:46.599Z,102862.97
2022-12-18T07:33:53.598Z,102865.31
2022-12-18T07:36:59.293Z,102859.44
2022-12-18T07:40:05.032Z,102874.03
2022-12-18T07:43:10.488Z,102870.19
2022-12-18T07:46:17.467Z,102879.06
2022-12-18T07:49:22.815Z,102880.28
2022-12-18T07:52:28.325Z,102892.28
2022-12-18T07:55:54.819Z,102896.84
2022-12-18T07:59:00.467Z,102898.50
2022-12-18T08:02:09.132Z,102909.34
2022-12-18T08:05:14.858Z,102918.75
2022-12-18T08:08:20.572Z,102929.59
2022-12-18T08:11:28.281Z,102937.00
2022-12-18T08:14:33.357Z,102945.78
2022-12-18T08:17:38.712Z,102938.09
2022-12-18T08:20:44.070Z,102951.03
2022-12-18T08:23:51.153Z,102956.59
2022-12-18T08:27:27.819Z,102951.59
2022-12-18T08:30:23.806Z,102954.34
2022-12-18T08:33:29.504Z,102961.84
2022-12-18T08:36:34.744Z,102959.59
2022-12-18T08:39:39.706Z,102968.97
2022-12-18T08:43:03.051Z,102975.22
2022-12-18T08:46:08.431Z,102984.63
2022-12-18T08:49:13.894Z,102984.44
2022-12-18T08:52:19.340Z,102990.56
2022-12-18T08:55:24.505Z,102997.09
2022-12-18T08:58:30.631Z,103001.94
2022-12-18T09:01:36.607Z,103006.28
2022-12-18T09:04:42.596Z,103001.03
2022-12-18T09:07:48.188Z,103005.72
2022-12-18T09:10:53.781Z,103009.75
2022-12-18T09:14:01.287Z,103008.19
2022-12-18T09:17:06.903Z,103019.84
2022-12-18T09:20:12.448Z,103015.38
2022-12-18T09:23:17.912Z,103016.19
2022-12-18T09:26:25.500Z,103013.97
2022-12-18T09:29:31.662Z,103011.41
2022-12-18T09:32:36.845Z,103012.09
2022-12-18T09:35:44.036Z,103009.28
2022-12-18T09:38:49.666Z,103006.56
2022-12-18T09:41:58.895Z,103007.94
2022-12-18T09:45:04.875Z,102998.13
2022-12-18T09:48:22.231Z,102998.59
2022-12-18T09:51:41.149Z,103000.16
2022-12-18T09:55:11.959Z,102997.53
2022-12-18T09:58:27.125Z,102994.97
2022-12-18T10:01:43.212Z,102990.56
2022-12-18T10:05:13.131Z,102993.44
2022-12-18T10:08:50.549Z,102994.88
2022-12-18T10:11:59.096Z,102982.50
2022-12-18T10:15:13.000Z,102973.41
2022-12-18T10:18:34.875Z,102966.75
2022-12-18T10:21:46.780Z,102970.44
2022-12-18T10:25:07.434Z,102977.69
2022-12-18T10:28:15.672Z,102974.38
2022-12-18T10:31:25.164Z,102968.81
2022-12-18T10:34:30.625Z,102972.00
2022-12-18T10:37:36.327Z,102978.16
2022-12-18T10:40:55.336Z,102978.41
2022-12-18T10:44:22.661Z,102976.50
2022-12-18T10:47:28.392Z,102980.56
2022-12-18T10:51:09.854Z,102984.16
2022-12-18T10:54:18.305Z,102977.91
2022-12-18T10:57:37.391Z,102975.91
2022-12-18T11:00:42.798Z,102981.78
2022-12-18T11:04:03.061Z,102979.81
2022-12-18T11:07:11.428Z,102975.06
2022-12-18T11:10:20.970Z,102970.47
2022-12-18T11:13:30.927Z,102962.78
2022-12-18T11:17:03.003Z,102954.19
2022-12-18T11:20:35.828Z,102957.25
2022-12-18T11:23:52.840Z,102954.44
2022-12-18T11:27:05.234Z,102958.84
2022-12-18T11:30:19.688Z,102966.81
2022-12-18T11:33:25.541Z,102956.00
2022-12-18T11:36:38.074Z,102957.50
2022-12-18T11:39:55.815Z,102956.97
2022-12-18T11:43:24.947Z,102951.75
2022-12-18T11:46:37.565Z,102944.63
2022-12-18T11:49:43.823Z,102940.13
2022-12-18T11:52:55.943Z,102944.31
2022-12-18T11:56:37.573Z,102948.41
2022-12-18T11:59:53.927Z,102946.28
2022-12-18T12:03:17.638Z,102940.91
2022-12-18T12:06:39.917Z,102942.38
2022-12-18T12:09:57.454Z,102939.31
2022-12-18T12:13:17.971Z,102940.28
2022-12-18T12:16:53.292Z,102944.00
2022-12-18T12:20:07.326Z,102937.03
2022-12-18T12:23:33.261Z,102937.97
2022-12-18T12:27:23.517Z,102947.63
2022-12-18T12:30:45.487Z,102944.97
2022-12-18T12:34:10.513Z,102939.50
2022-12-18T12:37:52.047Z,102937.50
2022-12-18T12:41:28.496Z,102937.50
2022-12-18T12:44:41.006Z,102939.50
2022-12-18T12:47:48.157Z,102940.69
2022-12-18T12:50:55.501Z,102926.72
2022-12-18T12:54:05.864Z,102924.91
2022-12-18T12:57:24.095Z,102927.38
2022-12-18T13:00:41.108Z,102920.59
2022-12-18T13:04:24.679Z,102923.75
2022-12-18T13:07:39.383Z,102923.41
2022-12-18T13:10:45.218Z,102914.75
2022-12-18T13:13:57.363Z,102913.06
2022-12-18T13:17:16.423Z,102908.28
2022-12-18T13:20:22.643Z,102910.59
2022-12-18T13:23:40.523Z,102905.59
2022-12-18T13:26:47.035Z,102904.09
2022-12-18T13:29:53.217Z,102901.25
2022-12-18T13:33:17.790Z,102900.28
2022-12-18T13:36:34.836Z,102902.78
2022-12-18T13:39:40.906Z,102902.44
2022-12-18T13:43:04.989Z,102904.94
2022-12-18T13:46:32.189Z,102903.78
2022-12-18T13:49:41.465Z,102902.44
2022-12-18T13:52:47.076Z,102904.44
2022-12-18T13:55:53.466Z,102904.91
2022-12-18T13:59:23.264Z,102913.22
2022-12-18T14:02:31.315Z,102916.25
2022-12-18T14:05:40.242Z,102915.38
2022-12-18T14:08:49.313Z,102908.28
2022-12-18T14:12:17.148Z,102902.91
2022-12-18T14:15:33.112Z,102903.91
2022-12-18T14:18:49.677Z,102905.09
2022-12-18T14:21:55.437Z,102903.41
2022-12-18T14:25:17.030Z,102903.38
2022-12-18T14:28:27.451Z,102897.72
2022-12-18T14:31:33.338Z,102898.88
2022-12-18T14:34:38.741Z,102898.88
2022-12-18T14:37:44.073Z,102904.72
2022-12-18T14:40:53.699Z,102893.53
2022-12-18T14:44:08.371Z,102900.81
2022-12-18T14:47:17.950Z,102903.66
2022-12-18T14:50:23.903Z,102907.94
2022-12-18T14:54:01.876Z,102912.53
2022-12-18T14:57:17.828Z,102916.13
2022-12-18T15:00:25.934Z,102924.00
2022-12-18T15:03:31.399Z,102932.34
2022-12-18T15:06:39.073Z,102931.94
2022-12-18T15:10:03.137Z,102937.84
2022-12-18T15:13:11.299Z,102933.22
2022-12-18T15:16:18.241Z,102941.47
2022-12-18T15:19:40.076Z,102939.78
2022-12-18T15:22:48.753Z,102950.53
2022-12-18T15:26:03.673Z,102951.06
2022-12-18T15:29:22.005Z,102958.03
2022-12-18T15:32:27.526Z,102957.53
2022-12-18T15:35:32.998Z,102969.34
2022-12-18T15:38:38.454Z,102972.22
2022-12-18T15:42:04.804Z,102969.38
2022-12-18T15:45:14.065Z,102967.53
2022-12-18T15:48:24.567Z,102977.50
2022-12-18T15:51:38.207Z,102974.47
2022-12-18T15:55:02.549Z,102982.47
2022-12-18T15:58:09.366Z,102994.88
2022-12-18T16:01:15.397Z,102996.53
2022-12-18T16:04:23.270Z,102997.25
2022-12-18T16:07:30.703Z,103000.63
2022-12-18T16:10:36.931Z,102999.34
2022-12-18T16:13:44.253Z,102995.59
2022-12-18T16:16:52.821Z,102993.25
2022-12-18T16:19:58.425Z,103005.41
2022-12-18T16:23:03.842Z,103009.91
2022-12-18T16:26:09.272Z,103017.56
2022-12-18T16:29:14.762Z,103017.16
2022-12-18T16:32:22.473Z,103022.88
2022-12-18T16:35:29.719Z,103021.19
2022-12-18T16:38:35.149Z,103024.44
2022-12-18T16:41:40.521Z,103011.09
2022-12-18T16:44:47.112Z,103008.59
2022-12-18T16:47:52.606Z,103017.22
2022-12-18T16:51:06.091Z,103013.75
2022-12-18T16:54:15.970Z,103017.13
2022-12-18T16:57:25.323Z,103021.44
2022-12-18T17:00:31.651Z,103016.69
2022-12-18T17:03:37.538Z,103017.94
2022-12-18T17:06:45.317Z,103011.28
2022-12-18T17:09:51.376Z,103009.03
2022-12-18T17:12:57.108Z,103014.44
2022-12-18T17:16:09.951Z,103016.97
2022-12-18T17:19:17.607Z,103021.97
2022-12-18T17:22:26.101Z,103027.53
2022-12-18T17:25:31.128Z,103031.44
2022-12-18T17:28:38.101Z,103037.03
2022-12-18T17:31:44.093Z,103032.66
2022-12-18T17:34:49.295Z,103033.22
2022-12-18T17:37:55.059Z,103033.09
2022-12-18T17:41:05.669Z,103037.53
2022-12-18T17:44:11.192Z,103038.78
2022-12-18T17:47:17.126Z,103039.75
2022-12-18T17:50:22.632Z,103033.06
2022-12-18T17:53:28.056Z,103037.63
2022-12-18T17:56:33.686Z,103036.22
2022-12-18T17:59:39.544Z,103042.38
2022-12-18T18:02:45.366Z,103035.25
2022-12-18T18:05:57.548Z,103039.16
2022-12-18T18:09:03.650Z,103043.72
2022-12-18T18:12:28.160Z,103043.34
2022-12-18T18:15:33.711Z,103047.63
2022-12-18T18:18:40.591Z,103051.09
2022-12-18T18:21:48.243Z,103059.28
2022-12-18T18:24:54.127Z,103060.94
2022-12-18T18:28:00.587Z,103049.66
2022-12-18T18:31:08.041Z,103056.19
2022-12-18T18:34:42.525Z,103061.16
2022-12-18T18:37:49.256Z,103070.50
2022-12-18T18:41:05.422Z,103060.91
2022-12-18T18:44:12.450Z,103055.78
2022-12-18T18:47:17.876Z,103056.69
2022-12-18T18:50:23.684Z,103051.31
2022-12-18T18:53:29.494Z,103041.47
2022-12-18T18:57:11.759Z,103034.19
2022-12-18T19:00:00.639Z,103056.59
2022-12-18T19:03:07.066Z,103055.09
2022-12-18T19:06:28.422Z,103062.41
2022-12-18T19:09:36.817Z,103065.38
2022-12-18T19:13:00.943Z,103064.19
2022-12-18T19:16:09.576Z,103078.78
2022-12-18T19:19:18.223Z,103077.88
2022-12-18T19:22:24.229Z,103076.81
2022-12-18T19:25:38.346Z,103081.47
2022-12-18T19:28:47.831Z,103079.03
2022-12-18T19:31:53.789Z,103066.81
2022-12-18T19:34:59.526Z,103079.75
2022-12-18T19:38:05.443Z,103075.66
2022-12-18T19:41:11.377Z,103071.84
2022-12-18T19:44:18.435Z,103075.78
2022-12-18T19:47:24.579Z,103077.81
2022-12-18T19:50:30.322Z,103075.59
2022-12-18T19:53:38.479Z,103071.63
2022-12-18T19:56:44.302Z,103073.38
2022-12-18T19:59:49.893Z,103081.59
2022-12-18T20:03:02.469Z,103081.47
2022-12-18T20:06:20.561Z,103095.03
2022-12-18T20:09:26.651Z,103095.41
2022-12-18T20:12:34.161Z,103103.69
2022-12-18T20:15:45.015Z,103099.44
2022-12-18T20:18:51.437Z,103111.28
2022-12-18T20:21:58.161Z,103117.09
2022-12-18T20:25:03.653Z,103123.94
2022-12-18T20:28:09.873Z,103128.66
2022-12-18T20:31:15.567Z,103134.38
2022-12-18T20:34:21.391Z,103139.91
2022-12-18T20:37:27.328Z,103137.16
2022-12-18T20:40:34.639Z,103136.16
2022-12-18T20:43:40.707Z,103137.19
2022-12-18T20:46:46.706Z,103130.97
2022-12-18T20:49:52.622Z,103129.22
2022-12-18T20:52:58.123Z,103126.56
2022-12-18T20:56:18.905Z,103128.56
2022-12-18T20:59:27.595Z,103125.25
2022-12-18T21:02:33.709Z,103135.44
2022-12-18T21:05:40.079Z,103141.22
2022-12-18T21:08:47.564Z,103142.44
2022-12-18T21:12:14.192Z,103143.94
2022-12-18T21:15:25.300Z,103140.22
2022-12-18T21:18:34.063Z,103152.00
2022-12-18T21:21:40.475Z,103157.38
2022-12-18T21:24:46.856Z,103165.03
2022-12-18T21:27:52.804Z,103158.78
2022-12-18T21:30:58.928Z,103164.19
2022-12-18T21:34:06.284Z,103167.78
2022-12-18T21:37:11.821Z,103166.38
2022-12-18T21:40:18.254Z,103163.50
2022-12-18T21:43:46.933Z,103156.53
2022-12-18T21:46:58.202Z,103156.31
2022-12-18T21:50:08.065Z,103163.47
2022-12-18T21:53:13.658Z,103156.34
2022-12-18T21:56:19.563Z,103164.78
2022-12-18T21:59:29.326Z,103158.66
2022-12-18T22:02:35.198Z,103153.56
2022-12-18T22:05:41.026Z,103145.31
2022-12-18T22:08:46.622Z,103149.03
2022-12-18T22:11:53.179Z,103141.91
2022-12-18T22:14:59.122Z,103143.59
2022-12-18T22:18:04.761Z,103152.00
2022-12-18T22:21:29.867Z,103151.88
2022-12-18T22:24:35.392Z,103152.63
2022-12-18T22:27:41.106Z,103160.56
2022-12-18T22:30:46.615Z,103152.63
2022-12-18T22:33:52.130Z,103156.88
2022-12-18T22:36:57.658Z,103162.41
2022-12-18T22:40:04.479Z,103158.00
2022-12-18T22:43:10.917Z,103147.19
2022-12-18T22:46:19.699Z,103154.16
2022-12-18T22:49:26.780Z,103146.47
2022-12-18T22:52:32.420Z,103154.28
2022-12-18T22:55:38.146Z,103164.81
2022-12-18T22:58:44.481Z,103156.31
2022-12-18T23:01:58.339Z,103150.28
2022-12-18T23:05:10.719Z,103146.59
2022-12-18T23:08:16.410Z,103134.31
2022-12-18T23:11:21.885Z,103123.41
2022-12-18T23:14:29.047Z,103124.38
2022-12-18T23:17:37.087Z,103133.56
2022-12-18T23:20:42.498Z,103125.44
2022-12-18T23:23:49.118Z,103127.13
2022-12-18T23:26:55.062Z,103130.47
2022-12-18T23:30:00.747Z,103140.38
2022-12-18T23:33:06.089Z,103140.50
2022-12-18T23:36:13.196Z,103132.84
2022-12-18T23:39:29.898Z,103135.00
2022-12-18T23:42:37.320Z,103131.63
2022-12-18T23:45:43.097Z,103144.47
2022-12-18T23:48:49.451Z,103149.63
2022-12-18T23:51:55.501Z,103147.44
2022-12-18T23:55:00.943Z,103152.94
2022-12-18T23:58:06.971Z,103143.13
